Conklingville, New York
Current Conditions -  °F | °C
As of 4:26 AM on Sunday 23 Nov 2014 (Local Time) from KGFL Reporting Station
Haze Haze  
Wind Chill: 31°   Ceiling: 2200
Heat Index: 35°   Visibility: 3mi
Dew Point: 32°   Wind: 5mph
Humidity: 89%   Direction: 180°S
Pressure: 30.06"   Gusts: NA
Location:  43.3006°N, 74.0106°W
Report Text: KGFL 230926Z AUTO 18004KT 3SM BR OVC022 02/00 A3006 RMK AO2 T00170000
Loading
Personal Weather Stations






























Interactive Weather Map New forecast layout! Learn more

10-Day Weather Forecast

Advertisements
Track Severe Weather on mobile